Decorah, IA

4:56 AM CDT on April 23, 2018 (GMT -0500)
Decorah Municipal

Weather History for KDEH - May, 2013

Change the Weather History Date:

Monday, May 20, 2013

  Actual Average Record
Temperature  
Mean Temperature 68 °F -  
Max Temperature 77 °F 73 °F 93 °F (1948)
Min Temperature 60 °F 48 °F 30 °F (1954)
Cooling Degree Days 4    
Growing Degree Days 18 (Base 50)    
Moisture  
Dew Point 60 °F    
Average Humidity 79    
Maximum Humidity 100    
Minimum Humidity 53    
Precipitation  
Precipitation 0.55 in - - ()
Sea Level Pressure  
Sea Level Pressure 29.63 in    
Wind  
Wind Speed 9 mph (South)    
Max Wind Speed 20 mph    
Max Gust Speed 33 mph    
Visibility 9 miles    
Events Rain    
Averages and records for this station are not official NWS values.
T = Trace of Precipitation, MM = Missing Value Source: NWS Daily Summary

Daily Weather History Graph

Daily Weather History Graph

Search for Another Location

Airport or City:

Astronomy

May. 20, 2013 Rise Set
Actual Time 5:37 AM CDT 8:29 PM CDT
Civil Twilight 5:04 AM CDT 9:03 PM CDT
Nautical Twilight 4:22 AM CDT 9:45 PM CDT
Astronomical Twilight 3:32 AM CDT 10:35 PM CDT
Moon 3:30 PM CDT (5/20) 2:41 AM CDT (5/20)
Length of Visible Light 15h 58m
Length of Day
14h 51m
Waxing Gibbous, 75% of the Moon is Illuminated
May 20
Waxing Gibbous
May 24
Full
May 31
Last Quarter
Jun 8
New
Jun 16
First Quarter

Hourly Weather History & Observations

Time (CDT) Temp. Dew Point Humidity Pressure Visibility Wind Dir Wind Speed Gust Speed Precip Events Conditions
12:15 AM 62.6 °F 62.6 °F 100% 29.70 in 3.0 mi SSW 5.8 mph - N/A Rain Rain
12:35 AM 62.6 °F 62.6 °F 100% 29.69 in 4.0 mi Calm Calm - N/A Rain Rain
12:55 AM 62.6 °F 62.6 °F 100% 29.68 in 4.0 mi Variable 4.6 mph - 0.28 in Rain Light Rain
1:15 AM 62.6 °F 62.6 °F 100% 29.62 in 8.0 mi NE 10.4 mph - N/A Rain Light Rain
1:35 AM 62.6 °F 62.6 °F 100% 29.64 in 10.0 mi East 5.8 mph - N/A   Mostly Cloudy
1:55 AM 62.6 °F 62.6 °F 100% 29.65 in 10.0 mi ESE 6.9 mph - 0.04 in   Scattered Clouds
2:15 AM 62.6 °F 62.6 °F 100% 29.62 in 10.0 mi Calm Calm - N/A   Partly Cloudy
2:35 AM 60.8 °F 60.8 °F 100% 29.59 in 10.0 mi SSE 3.5 mph - N/A   Scattered Clouds
3:15 AM 60.8 °F 60.8 °F 100% 29.62 in 10.0 mi SSE 10.4 mph 18.4 mph N/A   Overcast
3:35 AM 60.8 °F 60.8 °F 100% 29.61 in 10.0 mi SSE 11.5 mph 21.9 mph N/A   Overcast
3:55 AM 62.6 °F 60.8 °F 94% 29.60 in 10.0 mi SSE 12.7 mph 21.9 mph N/A   Overcast
4:15 AM 62.6 °F 60.8 °F 94% 29.60 in 9.0 mi SSE 12.7 mph 20.7 mph N/A   Overcast
4:35 AM 62.6 °F 60.8 °F 94% 29.58 in 5.0 mi SSE 10.4 mph 19.6 mph N/A   Overcast
4:55 AM 62.6 °F 60.8 °F 94% 29.57 in 5.0 mi SSE 11.5 mph - N/A   Mostly Cloudy
5:15 AM 60.8 °F 60.8 °F 100% 29.59 in 9.0 mi SSE 10.4 mph 16.1 mph N/A   Scattered Clouds
5:35 AM 60.8 °F 60.8 °F 100% 29.60 in 7.0 mi SSE 11.5 mph - N/A   Partly Cloudy
5:55 AM 60.8 °F 60.8 °F 100% 29.61 in 7.0 mi SSE 12.7 mph 18.4 mph N/A   Partly Cloudy
6:15 AM 60.8 °F 60.8 °F 100% 29.62 in 8.0 mi South 13.8 mph 20.7 mph N/A   Mostly Cloudy
6:35 AM 60.8 °F 60.8 °F 100% 29.63 in 10.0 mi South 12.7 mph 21.9 mph N/A   Scattered Clouds
7:15 AM 62.6 °F 60.8 °F 94% 29.63 in 10.0 mi South 9.2 mph 19.6 mph N/A   Mostly Cloudy
7:35 AM 62.6 °F 60.8 °F 94% 29.64 in 10.0 mi South 11.5 mph 20.7 mph N/A   Overcast
7:55 AM 64.4 °F 60.8 °F 88% 29.64 in 10.0 mi South 12.7 mph 21.9 mph N/A   Mostly Cloudy
8:15 AM 64.4 °F 60.8 °F 88% 29.65 in 10.0 mi SSW 9.2 mph 19.6 mph N/A   Mostly Cloudy
8:35 AM 64.4 °F 59.0 °F 83% 29.65 in 10.0 mi South 12.7 mph 19.6 mph N/A   Overcast
8:55 AM 64.4 °F 59.0 °F 83% 29.65 in 10.0 mi SSW 13.8 mph 24.2 mph N/A   Mostly Cloudy
9:15 AM 66.2 °F 59.0 °F 78% 29.65 in 10.0 mi SSW 10.4 mph 20.7 mph N/A   Scattered Clouds
9:35 AM 68.0 °F 59.0 °F 73% 29.64 in 10.0 mi SSW 11.5 mph 17.3 mph N/A   Clear
9:55 AM 68.0 °F 60.8 °F 78% 29.63 in 10.0 mi South 12.7 mph 19.6 mph N/A   Clear
10:35 AM 69.8 °F 59.0 °F 68% 29.64 in 10.0 mi SSW 9.2 mph 26.5 mph N/A   Clear
10:55 AM 69.8 °F 60.8 °F 73% 29.64 in 10.0 mi SSW 12.7 mph 24.2 mph N/A   Mostly Cloudy
11:15 AM 71.6 °F 60.8 °F 69% 29.64 in 10.0 mi SSW 16.1 mph 27.6 mph N/A   Mostly Cloudy
11:35 AM 71.6 °F 60.8 °F 69% 29.64 in 10.0 mi SSW 16.1 mph 23.0 mph N/A   Mostly Cloudy
11:55 AM 71.6 °F 59.0 °F 64% 29.64 in 10.0 mi SSW 15.0 mph 26.5 mph N/A   Mostly Cloudy
12:15 PM 71.6 °F 59.0 °F 64% 29.64 in 10.0 mi SSW 15.0 mph 29.9 mph N/A   Mostly Cloudy
12:35 PM 73.4 °F 59.0 °F 61% 29.64 in 10.0 mi SSW 13.8 mph 27.6 mph N/A   Partly Cloudy
1:15 PM 73.4 °F 59.0 °F 61% 29.65 in 10.0 mi SSW 19.6 mph 33.4 mph N/A   Mostly Cloudy
1:55 PM 73.4 °F 57.2 °F 57% 29.66 in 10.0 mi SSW 15.0 mph 27.6 mph N/A   Mostly Cloudy
2:15 PM 75.2 °F 59.0 °F 57% 29.65 in 10.0 mi SSW 12.7 mph 23.0 mph N/A   Mostly Cloudy
2:35 PM 75.2 °F 59.0 °F 57% 29.65 in 10.0 mi SW 15.0 mph 26.5 mph N/A   Mostly Cloudy
2:55 PM 75.2 °F 59.0 °F 57% 29.66 in 10.0 mi SSW 13.8 mph 32.2 mph N/A   Mostly Cloudy
3:15 PM 75.2 °F 59.0 °F 57% 29.66 in 10.0 mi SSW 13.8 mph 25.3 mph N/A   Mostly Cloudy
3:35 PM 75.2 °F 59.0 °F 57% 29.66 in 10.0 mi SW 16.1 mph - N/A   Mostly Cloudy
3:55 PM 75.2 °F 57.2 °F 53% 29.65 in 10.0 mi SW 17.3 mph 25.3 mph N/A   Mostly Cloudy
4:15 PM 75.2 °F 57.2 °F 53% 29.65 in 10.0 mi SSW 11.5 mph 20.7 mph N/A   Scattered Clouds
4:35 PM 75.2 °F 57.2 °F 53% 29.65 in 10.0 mi SSW 12.7 mph 23.0 mph N/A   Partly Cloudy
4:55 PM 75.2 °F 57.2 °F 53% 29.65 in 10.0 mi SW 16.1 mph 24.2 mph N/A   Partly Cloudy
5:15 PM 75.2 °F 57.2 °F 53% 29.66 in 10.0 mi SSW 12.7 mph 24.2 mph N/A   Scattered Clouds
5:35 PM 77.0 °F 59.0 °F 54% 29.65 in 10.0 mi SW 11.5 mph - N/A   Mostly Cloudy
5:55 PM 75.2 °F 57.2 °F 53% 29.64 in 10.0 mi SW 9.2 mph 20.7 mph N/A   Partly Cloudy
6:15 PM 75.2 °F 57.2 °F 53% 29.64 in 10.0 mi SW 9.2 mph 16.1 mph N/A   Clear
6:35 PM 75.2 °F 57.2 °F 53% 29.64 in 10.0 mi SW 10.4 mph 20.7 mph N/A   Clear
6:55 PM 75.2 °F 59.0 °F 57% 29.63 in 10.0 mi SW 4.6 mph - N/A   Clear
7:15 PM 73.4 °F 59.0 °F 61% 29.63 in 10.0 mi Calm Calm - N/A   Clear
7:35 PM 73.4 °F 59.0 °F 61% 29.63 in 10.0 mi SW 3.5 mph - N/A   Clear
7:55 PM 73.4 °F 59.0 °F 61% 29.62 in 10.0 mi Calm Calm - N/A   Partly Cloudy
8:15 PM 71.6 °F 59.0 °F 64% 29.63 in 10.0 mi SSE 5.8 mph - N/A   Mostly Cloudy
8:35 PM 66.2 °F 62.6 °F 88% 29.63 in 6.0 mi SSE 6.9 mph - N/A Rain Light Rain
9:15 PM 62.6 °F 57.2 °F 82% 29.61 in 10.0 mi SE 5.8 mph - N/A   Scattered Clouds
9:35 PM 62.6 °F 59.0 °F 88% 29.60 in 10.0 mi Calm Calm - N/A   Mostly Cloudy
9:55 PM 62.6 °F 59.0 °F 88% 29.60 in 10.0 mi Variable 3.5 mph - 0.01 in   Overcast
10:15 PM 62.6 °F 59.0 °F 88% 29.59 in 10.0 mi North 4.6 mph - N/A Rain Light Rain
10:35 PM 62.6 °F 59.0 °F 88% 29.62 in 2.0 mi SW 8.1 mph 17.3 mph N/A Rain Light Rain
10:55 PM 60.8 °F 59.0 °F 94% 29.61 in 10.0 mi Variable 4.6 mph 12.7 mph 0.16 in Rain Light Rain
11:15 PM 60.8 °F 59.0 °F 94% 29.61 in 6.0 mi ESE 8.1 mph - N/A Rain Light Rain
11:35 PM 60.8 °F 59.0 °F 94% 29.61 in 10.0 mi SE 5.8 mph 12.7 mph N/A   Mostly Cloudy
11:55 PM 60.8 °F 59.0 °F 94% 29.59 in 10.0 mi ESE 4.6 mph - 0.06 in Rain Light Rain